Weather reports worldwide

Advertisment
Aonach Mor, United Kingdom (3041): temperature & dewpoint: 19.03.2017 21:00:00 - 25.03.2017 21:00:00 (GMT)Aonach Mor, United Kingdom (3041): wind speed & gusts: 19.03.2017 21:00:00 - 25.03.2017 21:00:00 (GMT)Aonach Mor, United Kingdom (3041): wind direction: 19.03.2017 21:00:00 - 25.03.2017 21:00:00 (GMT)
Date & Time tt [°C] td [°C] ff [km/h] ff [kn] fx [km/h] fx [kn] dd
25.03.2017 21:00:00 6,3 - 2 1 - - SSW
25.03.2017 20:00:00 5,9 -19,5 5 3 - - N
25.03.2017 19:00:00 6,1 -21,8 4 2 - - W
25.03.2017 18:00:00 6,0 -16,3 5 3 - - SW
25.03.2017 17:00:00 6,3 -5,1 9 5 - - W
25.03.2017 16:00:00 6,2 -6,3 13 7 - - SW
25.03.2017 15:00:00 6,6 -6,7 15 8 - - W
25.03.2017 14:00:00 5,3 -6,3 16 9 - - SW
25.03.2017 13:00:00 4,9 -5,8 18 10 - - WSW
25.03.2017 12:00:00 4,8 -6,8 18 10 - - WSW
25.03.2017 11:00:00 3,6 -6,8 22 12 - - WSW
25.03.2017 10:00:00 0,4 -8,3 28 15 - - WSW
25.03.2017 09:00:00 0,1 -8,4 29 16 - - WSW
25.03.2017 08:00:00 0,0 -6,8 34 18 46 25 WSW
25.03.2017 07:00:00 0,2 -3,4 34 18 54 29 WSW
25.03.2017 06:00:00 0,1 -4,4 37 20 50 27 WSW
25.03.2017 05:00:00 0,1 -4,4 39 21 52 28 SW
25.03.2017 04:00:00 0,1 -6,8 39 21 57 31 WSW
25.03.2017 03:00:00 0,0 -4,6 37 20 59 32 SW
25.03.2017 02:00:00 -0,4 -4,5 37 20 50 27 WSW
25.03.2017 01:00:00 -0,7 -3,4 24 13 - - SW
25.03.2017 00:00:00 -0,9 -3,9 24 13 - - SW
24.03.2017 23:00:00 -0,8 -2,9 22 12 - - SW
24.03.2017 22:00:00 -1,1 -1,8 26 14 - - WSW
24.03.2017 21:00:00 -1,3 -1,5 28 15 - - SW
24.03.2017 20:00:00 -0,9 -0,9 26 14 - - WSW
24.03.2017 19:00:00 -0,7 -0,7 28 15 48 26 WSW
24.03.2017 18:00:00 -0,5 -0,5 22 12 48 26 WSW
24.03.2017 17:00:00 -0,2 -0,2 21 11 - - WSW
24.03.2017 16:00:00 -0,2 -0,2 24 13 46 25 SW
24.03.2017 15:00:00 -0,2 -0,2 29 16 48 26 SW
24.03.2017 14:00:00 -0,2 -0,2 21 11 - - SW
24.03.2017 13:00:00 -0,4 -0,4 28 15 48 26 SW
24.03.2017 12:00:00 -0,6 -0,6 37 20 52 28 SW
24.03.2017 11:00:00 -0,7 -0,7 31 17 55 30 SW
24.03.2017 10:00:00 -0,7 -0,7 29 16 54 29 WSW
24.03.2017 09:00:00 -1,1 -2,4 37 20 57 31 WSW
24.03.2017 08:00:00 -1,5 -2,6 31 17 48 26 SW
24.03.2017 07:00:00 -1,8 -2,5 29 16 - - WSW
24.03.2017 06:00:00 -2,2 -2,6 29 16 - - SW
24.03.2017 05:00:00 -2,5 -3,1 24 13 - - SW
24.03.2017 04:00:00 -2,7 -3,1 21 11 - - SW
24.03.2017 03:00:00 -2,7 -3,3 22 12 - - WSW
24.03.2017 02:00:00 -2,8 -3,4 22 12 - - SSW
24.03.2017 01:00:00 -2,9 -3,2 21 11 - - SW
24.03.2017 00:00:00 -2,9 -3,3 22 12 - - SW
23.03.2017 23:00:00 -3,0 -3,2 15 8 - - S
23.03.2017 22:00:00 -2,9 -3,1 18 10 - - S
23.03.2017 21:00:00 -3,0 -3,1 18 10 - - S
23.03.2017 20:00:00 -3,0 -3,2 13 7 - - S
23.03.2017 19:00:00 -2,8 -3,7 11 6 - - S
23.03.2017 18:00:00 -2,3 -2,3 9 5 - - S
23.03.2017 17:00:00 -1,3 -1,3 9 5 - - SSW
23.03.2017 16:00:00 -1,9 - 9 5 - - S
23.03.2017 15:00:00 -2,2 -2,3 15 8 - - SSE
23.03.2017 14:00:00 -2,5 -2,6 16 9 - - SSE
23.03.2017 13:00:00 -3,4 - 22 12 - - SE
23.03.2017 12:00:00 -3,6 - 15 8 - - ESE
23.03.2017 11:00:00 -4,0 -5,5 15 8 - - NNE
23.03.2017 10:00:00 -4,4 -6,0 16 9 50 27 ENE
23.03.2017 09:00:00 -5,0 -5,9 11 6 - - W
23.03.2017 08:00:00 -5,4 -5,8 13 7 - - W
23.03.2017 07:00:00 -5,9 -6,5 26 14 - - ENE
23.03.2017 06:00:00 -6,2 -6,8 28 15 57 31 ENE
23.03.2017 05:00:00 -6,2 -6,8 31 17 59 32 ENE
23.03.2017 04:00:00 -6,4 -7,0 35 19 59 32 ENE
23.03.2017 03:00:00 -5,8 -6,4 16 9 48 26 ESE
23.03.2017 02:00:00 -5,9 -6,5 15 8 48 26 SSE
23.03.2017 01:00:00 -6,0 -6,5 15 8 59 32 WSW
23.03.2017 00:00:00 -5,5 -6,0 21 11 52 28 SSW
22.03.2017 23:00:00 -5,0 -5,5 21 11 67 36 N
22.03.2017 22:00:00 -5,1 -5,6 15 8 59 32 WSW
22.03.2017 21:00:00 -5,1 -5,6 18 10 67 36 SE
22.03.2017 20:00:00 -4,9 -5,3 16 9 - - WSW
22.03.2017 19:00:00 -4,4 -4,8 8 4 54 29 NNW
22.03.2017 18:00:00 -4,4 -4,8 24 13 50 27 NNE
22.03.2017 17:00:00 -4,4 -4,8 29 16 55 30 N
22.03.2017 16:00:00 -3,9 -4,2 28 15 54 29 N
22.03.2017 15:00:00 -3,7 -3,9 15 8 46 25 E
22.03.2017 14:00:00 -3,8 -4,0 13 7 55 30 N
22.03.2017 13:00:00 -3,8 -4,0 11 6 - - W
22.03.2017 12:00:00 -4,4 -4,6 15 8 46 25 SSE
22.03.2017 11:00:00 -4,2 -4,4 15 8 - - S
22.03.2017 10:00:00 -5,2 -5,5 18 10 - - ESE
22.03.2017 09:00:00 -5,2 -5,4 15 8 46 25 SSW
22.03.2017 08:00:00 -5,4 -5,9 18 10 48 26 E
22.03.2017 07:00:00 -5,7 -6,2 35 19 46 25 ENE
22.03.2017 06:00:00 -5,7 -6,3 24 13 - - ENE
22.03.2017 05:00:00 -5,5 -6,0 24 13 - - NNE
22.03.2017 04:00:00 -5,6 -6,1 15 8 - - N
22.03.2017 03:00:00 -5,8 -6,4 11 6 - - WNW
22.03.2017 02:00:00 -5,5 -6,0 8 4 - - WNW
22.03.2017 01:00:00 -5,4 -5,8 13 7 - - W
22.03.2017 00:00:00 -5,8 -6,2 21 11 - - WSW
21.03.2017 23:00:00 -6,0 -6,4 18 10 - - SW
21.03.2017 22:00:00 -6,0 -6,5 28 15 - - WSW
21.03.2017 21:00:00 -5,8 -6,3 28 15 52 28 SW
21.03.2017 20:00:00 -5,5 -6,0 37 20 78 42 SW
21.03.2017 19:00:00 -5,4 -5,8 42 23 80 43 WSW
21.03.2017 18:00:00 -5,1 -5,4 46 25 74 40 WSW
21.03.2017 17:00:00 -5,3 -5,6 31 17 70 38 WSW
21.03.2017 16:00:00 -4,9 -5,2 54 29 78 42 WSW
21.03.2017 15:00:00 -5,3 -5,8 59 32 83 45 WSW
21.03.2017 14:00:00 -4,9 -5,1 50 27 93 50 WSW
21.03.2017 13:00:00 -5,5 -5,9 63 34 91 49 WSW
21.03.2017 12:00:00 -5,4 -5,9 54 29 94 51 SW
21.03.2017 11:00:00 -5,0 -5,4 42 23 74 40 WSW
21.03.2017 10:00:00 -5,6 -6,1 57 31 81 44 WSW
21.03.2017 09:00:00 -5,1 -5,6 55 30 85 46 WSW
21.03.2017 08:00:00 -5,3 -5,6 55 30 94 51 WSW
21.03.2017 07:00:00 -5,1 -5,5 54 29 100 54 WSW
21.03.2017 06:00:00 -5,3 -5,7 57 31 102 55 WSW
21.03.2017 05:00:00 -5,0 -5,4 50 27 94 51 WSW
21.03.2017 04:00:00 -5,0 -5,4 41 22 87 47 SW
21.03.2017 03:00:00 -5,1 -5,5 42 23 74 40 SW
21.03.2017 02:00:00 -4,8 -5,3 48 26 76 41 SSW
21.03.2017 01:00:00 -4,5 -4,8 41 22 78 42 SW
21.03.2017 00:00:00 -4,3 -4,6 44 24 74 40 SW
20.03.2017 23:00:00 -4,0 -4,4 54 29 80 43 SW
20.03.2017 22:00:00 -4,2 -4,6 55 30 87 47 SW
20.03.2017 21:00:00 -3,9 -4,1 46 25 96 52 WSW
20.03.2017 20:00:00 -3,8 -4,1 44 24 81 44 SW
20.03.2017 19:00:00 -3,9 -4,2 48 26 89 48 WSW
20.03.2017 18:00:00 -3,4 -3,7 44 24 85 46 WSW
20.03.2017 17:00:00 -3,7 -4,1 65 35 104 56 WSW
20.03.2017 16:00:00 -3,2 -3,4 48 26 93 50 WSW
20.03.2017 15:00:00 -3,3 -3,6 61 33 89 48 WSW
20.03.2017 14:00:00 -3,4 -3,6 63 34 107 58 WSW
20.03.2017 13:00:00 -3,4 -3,7 48 26 106 57 WSW
20.03.2017 12:00:00 -4,1 -4,4 76 41 111 60 WSW
20.03.2017 11:00:00 -3,6 -3,8 72 39 119 64 WSW
20.03.2017 10:00:00 -3,8 -4,2 52 28 124 67 SW
20.03.2017 09:00:00 -3,7 -4,0 65 35 119 64 SW
20.03.2017 08:00:00 -3,5 -3,7 76 41 115 62 WSW
20.03.2017 07:00:00 -2,5 -2,7 61 33 130 70 WSW
20.03.2017 06:00:00 -1,0 -1,2 55 30 146 79 WSW
20.03.2017 05:00:00 0,0 -0,9 98 53 141 76 SSW
20.03.2017 04:00:00 -0,7 -0,9 78 42 113 61 SSW
20.03.2017 03:00:00 -1,0 -1,1 65 35 106 57 SSW
20.03.2017 02:00:00 -2,9 -3,3 67 36 93 50 SSW
20.03.2017 01:00:00 -1,8 -2,0 54 29 78 42 SSW
20.03.2017 00:00:00 -2,1 -2,3 65 35 78 42 SW
19.03.2017 23:00:00 -2,3 -2,5 54 29 80 43 SW
19.03.2017 22:00:00 -2,3 -2,5 48 26 74 40 SW
19.03.2017 21:00:00 -2,5 -2,8 37 20 81 44 SW

tt = temperature
td = dewpoint
ff = wind speed
fx = gusts
dd = wind direction

Next stations